sensor_id;sensor_type;location;lat;lon;timestamp;P1;durP1;ratioP1;P2;durP2;ratioP2
50161;SDS011;36061;48.116;11.612;2022-09-01T00:00:47;15.63;;;11.93;;
50161;SDS011;36061;48.116;11.612;2022-09-01T00:03:17;16.07;;;12.13;;
50161;SDS011;36061;48.116;11.612;2022-09-01T00:05:46;15.93;;;11.70;;
50161;SDS011;36061;48.116;11.612;2022-09-01T00:08:15;17.50;;;12.20;;
50161;SDS011;36061;48.116;11.612;2022-09-01T00:10:41;17.37;;;11.63;;
50161;SDS011;36061;48.116;11.612;2022-09-01T00:13:07;18.43;;;14.03;;
50161;SDS011;36061;48.116;11.612;2022-09-01T00:15:33;20.80;;;13.60;;
50161;SDS011;36061;48.116;11.612;2022-09-01T00:18:00;20.43;;;13.20;;
50161;SDS011;36061;48.116;11.612;2022-09-01T00:20:26;18.90;;;13.70;;
50161;SDS011;36061;48.116;11.612;2022-09-01T00:22:53;20.10;;;13.43;;
50161;SDS011;36061;48.116;11.612;2022-09-01T00:25:19;20.33;;;14.57;;
50161;SDS011;36061;48.116;11.612;2022-09-01T00:27:47;19.47;;;13.40;;
50161;SDS011;36061;48.116;11.612;2022-09-01T00:30:13;18.73;;;13.70;;
50161;SDS011;36061;48.116;11.612;2022-09-01T00:32:40;19.20;;;13.17;;
50161;SDS011;36061;48.116;11.612;2022-09-01T00:35:17;19.40;;;14.10;;
50161;SDS011;36061;48.116;11.612;2022-09-01T00:37:44;19.53;;;13.67;;
50161;SDS011;36061;48.116;11.612;2022-09-01T00:40:10;21.60;;;14.37;;
50161;SDS011;36061;48.116;11.612;2022-09-01T00:42:38;20.90;;;14.30;;
50161;SDS011;36061;48.116;11.612;2022-09-01T00:45:04;25.37;;;14.87;;
50161;SDS011;36061;48.116;11.612;2022-09-01T00:47:31;18.43;;;13.77;;
50161;SDS011;36061;48.116;11.612;2022-09-01T00:49:57;18.53;;;14.13;;
50161;SDS011;36061;48.116;11.612;2022-09-01T00:52:38;23.37;;;15.23;;
50161;SDS011;36061;48.116;11.612;2022-09-01T00:55:26;23.43;;;15.30;;
50161;SDS011;36061;48.116;11.612;2022-09-01T00:57:55;22.20;;;14.77;;
50161;SDS011;36061;48.116;11.612;2022-09-01T01:00:25;21.83;;;14.07;;
50161;SDS011;36061;48.116;11.612;2022-09-01T01:02:54;20.70;;;15.17;;
50161;SDS011;36061;48.116;11.612;2022-09-01T01:05:25;22.83;;;14.93;;
50161;SDS011;36061;48.116;11.612;2022-09-01T01:07:57;18.80;;;14.27;;
50161;SDS011;36061;48.116;11.612;2022-09-01T01:10:29;24.70;;;15.60;;
50161;SDS011;36061;48.116;11.612;2022-09-01T01:12:57;18.17;;;13.40;;
50161;SDS011;36061;48.116;11.612;2022-09-01T01:15:28;19.43;;;13.60;;
50161;SDS011;36061;48.116;11.612;2022-09-01T01:17:54;20.93;;;14.10;;
50161;SDS011;36061;48.116;11.612;2022-09-01T01:20:20;22.50;;;14.80;;
50161;SDS011;36061;48.116;11.612;2022-09-01T01:25:53;17.70;;;13.17;;
50161;SDS011;36061;48.116;11.612;2022-09-01T01:33:34;21.90;;;15.47;;
50161;SDS011;36061;48.116;11.612;2022-09-01T01:36:11;17.90;;;12.67;;
50161;SDS011;36061;48.116;11.612;2022-09-01T01:38:43;20.83;;;14.03;;
50161;SDS011;36061;48.116;11.612;2022-09-01T01:41:12;19.73;;;12.80;;
50161;SDS011;36061;48.116;11.612;2022-09-01T01:43:39;19.53;;;14.00;;
50161;SDS011;36061;48.116;11.612;2022-09-01T01:46:07;23.73;;;15.17;;
50161;SDS011;36061;48.116;11.612;2022-09-01T01:48:37;22.13;;;14.90;;
50161;SDS011;36061;48.116;11.612;2022-09-01T01:51:06;22.07;;;13.80;;
50161;SDS011;36061;48.116;11.612;2022-09-01T01:53:33;21.17;;;13.57;;
50161;SDS011;36061;48.116;11.612;2022-09-01T01:55:59;22.73;;;13.50;;
50161;SDS011;36061;48.116;11.612;2022-09-01T01:58:30;18.70;;;13.60;;
50161;SDS011;36061;48.116;11.612;2022-09-01T02:00:57;19.73;;;14.77;;
50161;SDS011;36061;48.116;11.612;2022-09-01T02:03:26;20.07;;;12.93;;
50161;SDS011;36061;48.116;11.612;2022-09-01T02:06:02;17.20;;;12.43;;
50161;SDS011;36061;48.116;11.612;2022-09-01T02:08:34;18.07;;;13.03;;
50161;SDS011;36061;48.116;11.612;2022-09-01T02:11:02;19.27;;;12.90;;
50161;SDS011;36061;48.116;11.612;2022-09-01T02:13:30;16.03;;;12.43;;
50161;SDS011;36061;48.116;11.612;2022-09-01T02:16:01;18.47;;;12.40;;
50161;SDS011;36061;48.116;11.612;2022-09-01T02:18:31;17.50;;;13.27;;
50161;SDS011;36061;48.116;11.612;2022-09-01T02:21:01;15.97;;;12.00;;
50161;SDS011;36061;48.116;11.612;2022-09-01T02:23:36;17.33;;;11.90;;
50161;SDS011;36061;48.116;11.612;2022-09-01T02:26:03;18.00;;;11.43;;
50161;SDS011;36061;48.116;11.612;2022-09-01T02:28:32;17.60;;;11.90;;
50161;SDS011;36061;48.116;11.612;2022-09-01T02:31:02;17.20;;;12.50;;
50161;SDS011;36061;48.116;11.612;2022-09-01T02:33:29;19.10;;;12.17;;
50161;SDS011;36061;48.116;11.612;2022-09-01T02:35:58;14.97;;;11.23;;
50161;SDS011;36061;48.116;11.612;2022-09-01T02:38:26;15.73;;;12.33;;
50161;SDS011;36061;48.116;11.612;2022-09-01T02:40:55;18.33;;;11.70;;
50161;SDS011;36061;48.116;11.612;2022-09-01T02:43:23;19.63;;;12.17;;
50161;SDS011;36061;48.116;11.612;2022-09-01T02:45:53;19.13;;;13.07;;
50161;SDS011;36061;48.116;11.612;2022-09-01T02:48:27;16.93;;;12.00;;
50161;SDS011;36061;48.116;11.612;2022-09-01T02:51:02;14.83;;;11.00;;
50161;SDS011;36061;48.116;11.612;2022-09-01T02:53:30;16.93;;;12.70;;
50161;SDS011;36061;48.116;11.612;2022-09-01T02:55:59;16.63;;;11.07;;
50161;SDS011;36061;48.116;11.612;2022-09-01T02:58:28;20.13;;;12.57;;
50161;SDS011;36061;48.116;11.612;2022-09-01T03:00:57;18.97;;;12.63;;
50161;SDS011;36061;48.116;11.612;2022-09-01T03:03:24;18.93;;;11.90;;
50161;SDS011;36061;48.116;11.612;2022-09-01T03:05:51;18.10;;;13.43;;
50161;SDS011;36061;48.116;11.612;2022-09-01T03:08:19;17.63;;;12.63;;
50161;SDS011;36061;48.116;11.612;2022-09-01T03:10:47;17.17;;;12.93;;
50161;SDS011;36061;48.116;11.612;2022-09-01T03:13:14;18.80;;;12.27;;
50161;SDS011;36061;48.116;11.612;2022-09-01T03:15:43;21.17;;;13.67;;
50161;SDS011;36061;48.116;11.612;2022-09-01T03:18:10;19.37;;;12.73;;
50161;SDS011;36061;48.116;11.612;2022-09-01T03:20:38;16.93;;;11.00;;
50161;SDS011;36061;48.116;11.612;2022-09-01T03:23:12;18.80;;;12.47;;
50161;SDS011;36061;48.116;11.612;2022-09-01T03:25:41;17.17;;;12.03;;
50161;SDS011;36061;48.116;11.612;2022-09-01T03:28:08;16.63;;;12.17;;
50161;SDS011;36061;48.116;11.612;2022-09-01T03:30:37;17.97;;;12.70;;
50161;SDS011;36061;48.116;11.612;2022-09-01T03:33:04;20.40;;;14.57;;
50161;SDS011;36061;48.116;11.612;2022-09-01T03:35:31;18.80;;;13.97;;
50161;SDS011;36061;48.116;11.612;2022-09-01T03:37:58;19.73;;;13.23;;
50161;SDS011;36061;48.116;11.612;2022-09-01T03:40:27;18.10;;;13.07;;
50161;SDS011;36061;48.116;11.612;2022-09-01T03:42:59;19.73;;;13.37;;
50161;SDS011;36061;48.116;11.612;2022-09-01T03:45:27;18.47;;;13.40;;
50161;SDS011;36061;48.116;11.612;2022-09-01T03:47:54;17.20;;;12.23;;
50161;SDS011;36061;48.116;11.612;2022-09-01T03:50:21;19.87;;;12.43;;
50161;SDS011;36061;48.116;11.612;2022-09-01T03:55:17;20.10;;;12.60;;
50161;SDS011;36061;48.116;11.612;2022-09-01T03:57:52;18.77;;;12.37;;
50161;SDS011;36061;48.116;11.612;2022-09-01T04:00:21;19.23;;;12.73;;
50161;SDS011;36061;48.116;11.612;2022-09-01T04:02:50;18.97;;;13.17;;
50161;SDS011;36061;48.116;11.612;2022-09-01T04:05:20;21.13;;;14.17;;
50161;SDS011;36061;48.116;11.612;2022-09-01T04:07:47;16.17;;;11.87;;
50161;SDS011;36061;48.116;11.612;2022-09-01T04:10:15;19.67;;;12.10;;
50161;SDS011;36061;48.116;11.612;2022-09-01T04:12:42;20.00;;;13.40;;
50161;SDS011;36061;48.116;11.612;2022-09-01T04:15:09;18.27;;;12.27;;
50161;SDS011;36061;48.116;11.612;2022-09-01T04:17:37;17.17;;;12.73;;
50161;SDS011;36061;48.116;11.612;2022-09-01T04:20:25;16.77;;;11.37;;
50161;SDS011;36061;48.116;11.612;2022-09-01T04:22:52;14.47;;;11.73;;
50161;SDS011;36061;48.116;11.612;2022-09-01T04:25:18;18.57;;;12.60;;
50161;SDS011;36061;48.116;11.612;2022-09-01T04:27:48;18.20;;;12.87;;
50161;SDS011;36061;48.116;11.612;2022-09-01T04:30:16;18.77;;;12.73;;
50161;SDS011;36061;48.116;11.612;2022-09-01T04:32:46;19.43;;;13.20;;
50161;SDS011;36061;48.116;11.612;2022-09-01T04:35:12;21.47;;;13.20;;
50161;SDS011;36061;48.116;11.612;2022-09-01T04:37:42;21.93;;;14.37;;
50161;SDS011;36061;48.116;11.612;2022-09-01T04:40:08;16.73;;;12.40;;
50161;SDS011;36061;48.116;11.612;2022-09-01T04:42:34;17.93;;;12.20;;
50161;SDS011;36061;48.116;11.612;2022-09-01T04:45:01;22.37;;;14.17;;
50161;SDS011;36061;48.116;11.612;2022-09-01T04:47:28;20.73;;;14.07;;
50161;SDS011;36061;48.116;11.612;2022-09-01T04:49:56;18.23;;;12.70;;
50161;SDS011;36061;48.116;11.612;2022-09-01T04:52:24;19.70;;;13.90;;
50161;SDS011;36061;48.116;11.612;2022-09-01T04:54:51;19.73;;;13.47;;
50161;SDS011;36061;48.116;11.612;2022-09-01T04:57:20;18.90;;;12.70;;
50161;SDS011;36061;48.116;11.612;2022-09-01T04:59:46;19.63;;;14.03;;
50161;SDS011;36061;48.116;11.612;2022-09-01T05:02:12;19.90;;;13.07;;
50161;SDS011;36061;48.116;11.612;2022-09-01T05:04:40;22.20;;;14.97;;
50161;SDS011;36061;48.116;11.612;2022-09-01T05:07:11;18.20;;;12.30;;
50161;SDS011;36061;48.116;11.612;2022-09-01T05:09:38;21.10;;;13.97;;
50161;SDS011;36061;48.116;11.612;2022-09-01T05:12:23;22.07;;;14.50;;
50161;SDS011;36061;48.116;11.612;2022-09-01T05:14:52;19.03;;;12.90;;
50161;SDS011;36061;48.116;11.612;2022-09-01T05:17:19;22.03;;;13.93;;
50161;SDS011;36061;48.116;11.612;2022-09-01T05:19:47;19.43;;;14.13;;
50161;SDS011;36061;48.116;11.612;2022-09-01T05:22:15;18.07;;;13.03;;
50161;SDS011;36061;48.116;11.612;2022-09-01T05:24:51;21.20;;;13.50;;
50161;SDS011;36061;48.116;11.612;2022-09-01T05:27:17;20.23;;;13.70;;
50161;SDS011;36061;48.116;11.612;2022-09-01T05:29:44;18.83;;;13.47;;
50161;SDS011;36061;48.116;11.612;2022-09-01T05:32:11;18.83;;;13.40;;
50161;SDS011;36061;48.116;11.612;2022-09-01T05:34:38;17.77;;;11.83;;
50161;SDS011;36061;48.116;11.612;2022-09-01T05:37:06;16.87;;;12.03;;
50161;SDS011;36061;48.116;11.612;2022-09-01T05:39:37;17.47;;;12.07;;
50161;SDS011;36061;48.116;11.612;2022-09-01T05:42:04;16.33;;;11.60;;
50161;SDS011;36061;48.116;11.612;2022-09-01T05:44:37;18.23;;;11.90;;
50161;SDS011;36061;48.116;11.612;2022-09-01T05:47:08;16.67;;;11.57;;
50161;SDS011;36061;48.116;11.612;2022-09-01T05:49:36;17.93;;;11.70;;
50161;SDS011;36061;48.116;11.612;2022-09-01T05:52:03;15.13;;;10.37;;
50161;SDS011;36061;48.116;11.612;2022-09-01T05:54:30;15.73;;;10.97;;
50161;SDS011;36061;48.116;11.612;2022-09-01T05:56:57;16.60;;;10.93;;
50161;SDS011;36061;48.116;11.612;2022-09-01T05:59:26;19.37;;;11.87;;
50161;SDS011;36061;48.116;11.612;2022-09-01T06:02:11;16.47;;;10.83;;
50161;SDS011;36061;48.116;11.612;2022-09-01T06:04:38;18.57;;;11.53;;
50161;SDS011;36061;48.116;11.612;2022-09-01T06:07:13;17.20;;;10.93;;
50161;SDS011;36061;48.116;11.612;2022-09-01T06:09:45;16.70;;;10.93;;
50161;SDS011;36061;48.116;11.612;2022-09-01T06:12:14;19.93;;;11.37;;
50161;SDS011;36061;48.116;11.612;2022-09-01T06:14:48;14.43;;;10.10;;
50161;SDS011;36061;48.116;11.612;2022-09-01T06:17:17;17.87;;;10.93;;
50161;SDS011;36061;48.116;11.612;2022-09-01T06:19:49;15.83;;;10.73;;
50161;SDS011;36061;48.116;11.612;2022-09-01T06:22:23;13.97;;;8.90;;
50161;SDS011;36061;48.116;11.612;2022-09-01T06:24:51;13.40;;;9.10;;
50161;SDS011;36061;48.116;11.612;2022-09-01T06:27:19;15.53;;;10.60;;
50161;SDS011;36061;48.116;11.612;2022-09-01T06:29:45;16.20;;;10.80;;
50161;SDS011;36061;48.116;11.612;2022-09-01T06:32:15;18.60;;;10.97;;
50161;SDS011;36061;48.116;11.612;2022-09-01T06:34:42;16.23;;;10.63;;
50161;SDS011;36061;48.116;11.612;2022-09-01T06:37:14;15.43;;;9.77;;
50161;SDS011;36061;48.116;11.612;2022-09-01T06:39:43;16.97;;;9.43;;
50161;SDS011;36061;48.116;11.612;2022-09-01T06:42:10;14.93;;;9.50;;
50161;SDS011;36061;48.116;11.612;2022-09-01T06:44:51;16.50;;;10.03;;
50161;SDS011;36061;48.116;11.612;2022-09-01T06:47:17;12.63;;;8.90;;
50161;SDS011;36061;48.116;11.612;2022-09-01T06:49:43;14.27;;;10.20;;
50161;SDS011;36061;48.116;11.612;2022-09-01T06:52:15;13.83;;;8.93;;
50161;SDS011;36061;48.116;11.612;2022-09-01T06:54:42;14.00;;;9.93;;
50161;SDS011;36061;48.116;11.612;2022-09-01T06:57:08;14.17;;;9.13;;
50161;SDS011;36061;48.116;11.612;2022-09-01T06:59:34;14.00;;;9.67;;
50161;SDS011;36061;48.116;11.612;2022-09-01T07:02:02;12.43;;;9.03;;
50161;SDS011;36061;48.116;11.612;2022-09-01T07:05:06;11.60;;;9.07;;
50161;SDS011;36061;48.116;11.612;2022-09-01T07:07:32;12.50;;;8.20;;
50161;SDS011;36061;48.116;11.612;2022-09-01T07:10:02;13.27;;;9.13;;
50161;SDS011;36061;48.116;11.612;2022-09-01T07:12:36;12.83;;;8.87;;
50161;SDS011;36061;48.116;11.612;2022-09-01T07:15:02;11.93;;;7.77;;
50161;SDS011;36061;48.116;11.612;2022-09-01T07:17:29;12.00;;;8.77;;
50161;SDS011;36061;48.116;11.612;2022-09-01T07:19:55;11.27;;;7.97;;
50161;SDS011;36061;48.116;11.612;2022-09-01T07:22:23;11.77;;;8.00;;
50161;SDS011;36061;48.116;11.612;2022-09-01T07:24:49;9.17;;;7.53;;
50161;SDS011;36061;48.116;11.612;2022-09-01T07:27:33;9.50;;;7.90;;
50161;SDS011;36061;48.116;11.612;2022-09-01T07:29:59;10.20;;;7.93;;
50161;SDS011;36061;48.116;11.612;2022-09-01T07:32:25;10.13;;;7.60;;
50161;SDS011;36061;48.116;11.612;2022-09-01T07:34:54;9.03;;;7.20;;
50161;SDS011;36061;48.116;11.612;2022-09-01T07:37:21;12.40;;;7.63;;
50161;SDS011;36061;48.116;11.612;2022-09-01T07:39:47;9.03;;;7.37;;
50161;SDS011;36061;48.116;11.612;2022-09-01T07:42:36;8.73;;;7.03;;
50161;SDS011;36061;48.116;11.612;2022-09-01T07:45:24;8.17;;;6.97;;
50161;SDS011;36061;48.116;11.612;2022-09-01T07:48:01;8.43;;;7.07;;
50161;SDS011;36061;48.116;11.612;2022-09-01T07:50:34;9.33;;;6.73;;
50161;SDS011;36061;48.116;11.612;2022-09-01T07:53:02;8.30;;;6.70;;
50161;SDS011;36061;48.116;11.612;2022-09-01T07:55:29;8.83;;;7.57;;
50161;SDS011;36061;48.116;11.612;2022-09-01T07:57:57;8.00;;;6.70;;
50161;SDS011;36061;48.116;11.612;2022-09-01T08:00:24;8.90;;;6.50;;
50161;SDS011;36061;48.116;11.612;2022-09-01T08:02:55;8.77;;;7.50;;
50161;SDS011;36061;48.116;11.612;2022-09-01T08:05:21;9.03;;;6.80;;
50161;SDS011;36061;48.116;11.612;2022-09-01T08:07:51;6.33;;;5.73;;
50161;SDS011;36061;48.116;11.612;2022-09-01T08:10:21;7.60;;;6.80;;
50161;SDS011;36061;48.116;11.612;2022-09-01T08:12:48;8.93;;;5.97;;
50161;SDS011;36061;48.116;11.612;2022-09-01T08:15:14;7.93;;;7.13;;
50161;SDS011;36061;48.116;11.612;2022-09-01T08:17:43;9.80;;;6.73;;
50161;SDS011;36061;48.116;11.612;2022-09-01T08:20:11;8.33;;;6.43;;
50161;SDS011;36061;48.116;11.612;2022-09-01T08:22:57;7.57;;;6.17;;
50161;SDS011;36061;48.116;11.612;2022-09-01T08:25:27;7.50;;;6.57;;
50161;SDS011;36061;48.116;11.612;2022-09-01T08:27:53;7.50;;;6.33;;
50161;SDS011;36061;48.116;11.612;2022-09-01T08:30:19;7.40;;;6.23;;
50161;SDS011;36061;48.116;11.612;2022-09-01T08:32:45;8.53;;;6.60;;
50161;SDS011;36061;48.116;11.612;2022-09-01T08:35:11;9.33;;;6.63;;
50161;SDS011;36061;48.116;11.612;2022-09-01T08:37:41;8.17;;;6.60;;
50161;SDS011;36061;48.116;11.612;2022-09-01T08:40:09;7.97;;;5.30;;
50161;SDS011;36061;48.116;11.612;2022-09-01T08:42:46;5.70;;;5.10;;
50161;SDS011;36061;48.116;11.612;2022-09-01T08:48:04;9.10;;;6.10;;
50161;SDS011;36061;48.116;11.612;2022-09-01T08:50:54;5.97;;;5.13;;
50161;SDS011;36061;48.116;11.612;2022-09-01T08:53:41;7.73;;;5.67;;
50161;SDS011;36061;48.116;11.612;2022-09-01T08:56:19;6.90;;;5.93;;
50161;SDS011;36061;48.116;11.612;2022-09-01T08:58:47;6.90;;;5.77;;
50161;SDS011;36061;48.116;11.612;2022-09-01T09:10:25;6.30;;;5.40;;
50161;SDS011;36061;48.116;11.612;2022-09-01T09:21:37;8.10;;;5.97;;
50161;SDS011;36061;48.116;11.612;2022-09-01T09:26:49;7.60;;;6.07;;
50161;SDS011;36061;48.116;11.612;2022-09-01T09:29:15;6.83;;;5.50;;
50161;SDS011;36061;48.116;11.612;2022-09-01T09:31:42;5.83;;;5.13;;
50161;SDS011;36061;48.116;11.612;2022-09-01T09:34:17;5.43;;;4.93;;
50161;SDS011;36061;48.116;11.612;2022-09-01T09:37:14;6.03;;;5.17;;
50161;SDS011;36061;48.116;11.612;2022-09-01T09:39:41;7.67;;;5.87;;
50161;SDS011;36061;48.116;11.612;2022-09-01T09:42:08;6.93;;;5.40;;
50161;SDS011;36061;48.116;11.612;2022-09-01T09:44:41;6.57;;;5.30;;
50161;SDS011;36061;48.116;11.612;2022-09-01T09:47:10;6.87;;;5.10;;
50161;SDS011;36061;48.116;11.612;2022-09-01T09:50:09;6.70;;;5.70;;
50161;SDS011;36061;48.116;11.612;2022-09-01T09:52:48;6.93;;;5.57;;
50161;SDS011;36061;48.116;11.612;2022-09-01T09:55:26;6.03;;;5.33;;
50161;SDS011;36061;48.116;11.612;2022-09-01T09:57:55;5.73;;;4.63;;
50161;SDS011;36061;48.116;11.612;2022-09-01T10:00:25;5.70;;;4.47;;
50161;SDS011;36061;48.116;11.612;2022-09-01T10:02:59;6.20;;;4.60;;
50161;SDS011;36061;48.116;11.612;2022-09-01T10:05:46;7.00;;;4.30;;
50161;SDS011;36061;48.116;11.612;2022-09-01T10:10:51;6.47;;;5.30;;
50161;SDS011;36061;48.116;11.612;2022-09-01T10:13:22;6.10;;;5.07;;
50161;SDS011;36061;48.116;11.612;2022-09-01T10:15:51;6.23;;;5.37;;
50161;SDS011;36061;48.116;11.612;2022-09-01T10:18:20;7.03;;;5.10;;
50161;SDS011;36061;48.116;11.612;2022-09-01T10:23:24;5.67;;;4.93;;
50161;SDS011;36061;48.116;11.612;2022-09-01T10:25:53;5.87;;;4.53;;
50161;SDS011;36061;48.116;11.612;2022-09-01T10:28:23;5.17;;;4.07;;
50161;SDS011;36061;48.116;11.612;2022-09-01T10:30:51;4.97;;;4.23;;
50161;SDS011;36061;48.116;11.612;2022-09-01T10:33:20;5.93;;;4.57;;
50161;SDS011;36061;48.116;11.612;2022-09-01T10:35:52;6.07;;;5.03;;
50161;SDS011;36061;48.116;11.612;2022-09-01T10:38:20;6.70;;;4.90;;
50161;SDS011;36061;48.116;11.612;2022-09-01T10:40:52;7.00;;;5.30;;
50161;SDS011;36061;48.116;11.612;2022-09-01T10:46:40;6.20;;;4.33;;
50161;SDS011;36061;48.116;11.612;2022-09-01T10:49:02;5.70;;;3.80;;
50161;SDS011;36061;48.116;11.612;2022-09-01T10:51:45;8.80;;;3.93;;
50161;SDS011;36061;48.116;11.612;2022-09-01T10:54:55;5.50;;;3.90;;
50161;SDS011;36061;48.116;11.612;2022-09-01T10:57:04;4.13;;;3.70;;
50161;SDS011;36061;48.116;11.612;2022-09-01T10:59:45;4.57;;;3.57;;
50161;SDS011;36061;48.116;11.612;2022-09-01T11:20:23;6.13;;;3.03;;
50161;SDS011;36061;48.116;11.612;2022-09-01T11:25:44;3.93;;;2.73;;
50161;SDS011;36061;48.116;11.612;2022-09-01T11:33:42;3.17;;;2.87;;
50161;SDS011;36061;48.116;11.612;2022-09-01T11:36:35;2.80;;;2.50;;
50161;SDS011;36061;48.116;11.612;2022-09-01T11:44:30;2.87;;;2.20;;
50161;SDS011;36061;48.116;11.612;2022-09-01T11:47:05;2.70;;;2.40;;
50161;SDS011;36061;48.116;11.612;2022-09-01T11:49:39;2.57;;;2.37;;
50161;SDS011;36061;48.116;11.612;2022-09-01T11:52:14;3.60;;;2.77;;
50161;SDS011;36061;48.116;11.612;2022-09-01T11:54:41;3.70;;;2.23;;
50161;SDS011;36061;48.116;11.612;2022-09-01T11:57:18;2.07;;;1.97;;
50161;SDS011;36061;48.116;11.612;2022-09-01T11:59:46;3.50;;;2.10;;
50161;SDS011;36061;48.116;11.612;2022-09-01T12:02:19;5.77;;;2.70;;
50161;SDS011;36061;48.116;11.612;2022-09-01T12:04:56;1.90;;;1.80;;
50161;SDS011;36061;48.116;11.612;2022-09-01T12:09:59;3.97;;;2.00;;
50161;SDS011;36061;48.116;11.612;2022-09-01T12:12:37;2.07;;;1.90;;
50161;SDS011;36061;48.116;11.612;2022-09-01T12:15:08;2.23;;;2.03;;
50161;SDS011;36061;48.116;11.612;2022-09-01T12:17:42;2.40;;;2.00;;
50161;SDS011;36061;48.116;11.612;2022-09-01T12:20:25;2.50;;;2.30;;
50161;SDS011;36061;48.116;11.612;2022-09-01T12:22:55;2.80;;;1.73;;
50161;SDS011;36061;48.116;11.612;2022-09-01T12:25:26;3.23;;;1.80;;
50161;SDS011;36061;48.116;11.612;2022-09-01T12:28:03;2.07;;;1.90;;
50161;SDS011;36061;48.116;11.612;2022-09-01T12:30:32;3.60;;;2.00;;
50161;SDS011;36061;48.116;11.612;2022-09-01T12:33:00;2.83;;;1.90;;
50161;SDS011;36061;48.116;11.612;2022-09-01T12:35:29;3.40;;;2.17;;
50161;SDS011;36061;48.116;11.612;2022-09-01T12:40:51;5.77;;;2.10;;
50161;SDS011;36061;48.116;11.612;2022-09-01T12:43:32;2.50;;;2.30;;
50161;SDS011;36061;48.116;11.612;2022-09-01T12:46:03;2.17;;;1.90;;
50161;SDS011;36061;48.116;11.612;2022-09-01T12:48:32;1.90;;;1.77;;
50161;SDS011;36061;48.116;11.612;2022-09-01T12:51:01;2.83;;;1.90;;
50161;SDS011;36061;48.116;11.612;2022-09-01T12:53:39;2.37;;;2.10;;
50161;SDS011;36061;48.116;11.612;2022-09-01T12:56:16;2.60;;;2.07;;
50161;SDS011;36061;48.116;11.612;2022-09-01T12:58:46;4.53;;;1.93;;
50161;SDS011;36061;48.116;11.612;2022-09-01T13:01:26;2.93;;;2.30;;
50161;SDS011;36061;48.116;11.612;2022-09-01T13:06:50;3.30;;;2.47;;
50161;SDS011;36061;48.116;11.612;2022-09-01T13:09:16;3.63;;;2.23;;
50161;SDS011;36061;48.116;11.612;2022-09-01T13:11:42;2.20;;;2.03;;
50161;SDS011;36061;48.116;11.612;2022-09-01T13:14:08;2.90;;;1.90;;
50161;SDS011;36061;48.116;11.612;2022-09-01T13:16:34;2.90;;;2.10;;
50161;SDS011;36061;48.116;11.612;2022-09-01T13:19:01;2.40;;;2.20;;
50161;SDS011;36061;48.116;11.612;2022-09-01T13:21:27;2.50;;;2.30;;
50161;SDS011;36061;48.116;11.612;2022-09-01T13:23:54;2.23;;;2.07;;
50161;SDS011;36061;48.116;11.612;2022-09-01T13:26:20;2.90;;;2.30;;
50161;SDS011;36061;48.116;11.612;2022-09-01T13:28:46;2.40;;;2.07;;
50161;SDS011;36061;48.116;11.612;2022-09-01T13:31:12;1.80;;;1.70;;
50161;SDS011;36061;48.116;11.612;2022-09-01T13:33:38;2.43;;;2.20;;
50161;SDS011;36061;48.116;11.612;2022-09-01T13:36:04;4.37;;;2.20;;
50161;SDS011;36061;48.116;11.612;2022-09-01T13:38:30;2.43;;;1.80;;
50161;SDS011;36061;48.116;11.612;2022-09-01T13:40:56;2.73;;;2.20;;
50161;SDS011;36061;48.116;11.612;2022-09-01T13:43:24;2.37;;;2.17;;
50161;SDS011;36061;48.116;11.612;2022-09-01T13:45:53;1.90;;;1.73;;
50161;SDS011;36061;48.116;11.612;2022-09-01T13:48:20;3.20;;;1.90;;
50161;SDS011;36061;48.116;11.612;2022-09-01T13:50:47;1.93;;;1.70;;
50161;SDS011;36061;48.116;11.612;2022-09-01T13:53:14;2.27;;;2.00;;
50161;SDS011;36061;48.116;11.612;2022-09-01T13:55:41;2.37;;;2.17;;
50161;SDS011;36061;48.116;11.612;2022-09-01T13:58:07;3.17;;;1.83;;
50161;SDS011;36061;48.116;11.612;2022-09-01T14:00:35;2.80;;;1.70;;
50161;SDS011;36061;48.116;11.612;2022-09-01T14:03:07;2.30;;;2.10;;
50161;SDS011;36061;48.116;11.612;2022-09-01T14:05:38;2.93;;;2.10;;
50161;SDS011;36061;48.116;11.612;2022-09-01T14:08:08;3.50;;;1.70;;
50161;SDS011;36061;48.116;11.612;2022-09-01T14:10:39;2.23;;;1.97;;
50161;SDS011;36061;48.116;11.612;2022-09-01T14:13:07;3.23;;;2.00;;
50161;SDS011;36061;48.116;11.612;2022-09-01T14:15:34;2.63;;;2.03;;
50161;SDS011;36061;48.116;11.612;2022-09-01T14:18:00;1.93;;;1.80;;
50161;SDS011;36061;48.116;11.612;2022-09-01T14:20:28;3.30;;;2.23;;
50161;SDS011;36061;48.116;11.612;2022-09-01T14:22:59;4.03;;;2.13;;
50161;SDS011;36061;48.116;11.612;2022-09-01T14:25:26;2.77;;;1.90;;
50161;SDS011;36061;48.116;11.612;2022-09-01T14:27:53;2.40;;;2.20;;
50161;SDS011;36061;48.116;11.612;2022-09-01T14:30:22;4.10;;;2.07;;
50161;SDS011;36061;48.116;11.612;2022-09-01T14:32:49;3.00;;;2.00;;
50161;SDS011;36061;48.116;11.612;2022-09-01T14:35:16;2.80;;;1.87;;
50161;SDS011;36061;48.116;11.612;2022-09-01T14:37:43;2.73;;;1.90;;
50161;SDS011;36061;48.116;11.612;2022-09-01T14:40:11;2.20;;;2.00;;
50161;SDS011;36061;48.116;11.612;2022-09-01T14:42:39;3.93;;;2.10;;
50161;SDS011;36061;48.116;11.612;2022-09-01T14:45:13;2.87;;;2.10;;
50161;SDS011;36061;48.116;11.612;2022-09-01T14:47:42;1.83;;;1.60;;
50161;SDS011;36061;48.116;11.612;2022-09-01T14:50:09;4.90;;;1.97;;
50161;SDS011;36061;48.116;11.612;2022-09-01T14:52:36;2.10;;;1.90;;
50161;SDS011;36061;48.116;11.612;2022-09-01T14:55:02;2.10;;;1.70;;
50161;SDS011;36061;48.116;11.612;2022-09-01T14:57:29;1.83;;;1.40;;
50161;SDS011;36061;48.116;11.612;2022-09-01T14:59:56;4.83;;;1.90;;
50161;SDS011;36061;48.116;11.612;2022-09-01T15:02:23;3.03;;;1.77;;
50161;SDS011;36061;48.116;11.612;2022-09-01T15:04:49;1.53;;;1.43;;
50161;SDS011;36061;48.116;11.612;2022-09-01T15:07:16;1.40;;;1.30;;
50161;SDS011;36061;48.116;11.612;2022-09-01T15:09:42;1.60;;;1.47;;
50161;SDS011;36061;48.116;11.612;2022-09-01T15:12:08;3.13;;;1.57;;
50161;SDS011;36061;48.116;11.612;2022-09-01T15:14:34;1.77;;;1.20;;
50161;SDS011;36061;48.116;11.612;2022-09-01T15:17:00;2.63;;;1.53;;
50161;SDS011;36061;48.116;11.612;2022-09-01T15:19:27;3.20;;;1.90;;
50161;SDS011;36061;48.116;11.612;2022-09-01T15:21:52;2.90;;;1.70;;
50161;SDS011;36061;48.116;11.612;2022-09-01T15:24:18;2.57;;;1.80;;
50161;SDS011;36061;48.116;11.612;2022-09-01T15:26:44;2.27;;;1.87;;
50161;SDS011;36061;48.116;11.612;2022-09-01T15:29:11;2.37;;;1.50;;
50161;SDS011;36061;48.116;11.612;2022-09-01T15:31:39;2.23;;;1.67;;
50161;SDS011;36061;48.116;11.612;2022-09-01T15:34:07;1.87;;;1.67;;
50161;SDS011;36061;48.116;11.612;2022-09-01T15:36:34;1.73;;;1.60;;
50161;SDS011;36061;48.116;11.612;2022-09-01T15:39:01;2.10;;;1.90;;
50161;SDS011;36061;48.116;11.612;2022-09-01T15:41:28;2.70;;;1.70;;
50161;SDS011;36061;48.116;11.612;2022-09-01T15:43:56;2.40;;;1.57;;
50161;SDS011;36061;48.116;11.612;2022-09-01T15:46:22;2.27;;;1.50;;
50161;SDS011;36061;48.116;11.612;2022-09-01T15:48:56;1.97;;;1.50;;
50161;SDS011;36061;48.116;11.612;2022-09-01T15:51:36;1.77;;;1.50;;
50161;SDS011;36061;48.116;11.612;2022-09-01T15:54:08;1.50;;;1.40;;
50161;SDS011;36061;48.116;11.612;2022-09-01T15:56:38;1.63;;;1.23;;
50161;SDS011;36061;48.116;11.612;2022-09-01T15:59:04;2.73;;;1.27;;
50161;SDS011;36061;48.116;11.612;2022-09-01T16:01:32;1.40;;;1.30;;